Time;durP1;ratioP1;P1;durP2;ratioP2;P2;SDS_P1;SDS_P2;PMS_P1;PMS_P2;Temp;Humidity;BMP_temperature;BMP_pressure;BME280_temperature;BME280_humidity;BME280_pressure;Samples;Min_cycle;Max_cycle;Signal;HPM_P1;HPM_P2
2023/03/18 11:54:42;;;;;;;17.17;5.75;;;;;;;26.33;31.08;100078.38;5104487;27;20392;-52
2023/03/18 11:57:26;;;;;;;20.52;5.57;;;;;;;27.58;28.96;100136.63;5102776;28;20083;-54
2023/03/18 12:00:21;;;;;;;37.07;6.83;;;;;;;28.12;28.01;100137.41;5088899;28;20030;-47
2023/03/18 12:02:53;;;;;;;;;;;;;;;28.46;26.63;100137.81;5103820;28;20115;-49
2023/03/18 12:05:57;;;;;;;17.80;4.43;;;;;;;28.91;26.46;100138.34;5107157;28;19912;-50
2023/03/18 12:08:22;;;;;;;16.27;4.40;;;;;;;29.25;25.56;100147.00;5104607;28;20460;-49
2023/03/18 12:11:07;;;;;;;16.17;5.03;;;;;;;29.57;25.03;100147.56;5104046;28;20153;-48
2023/03/18 12:13:49;;;;;;;12.75;4.50;;;;;;;29.54;25.30;100138.78;5105878;28;20384;-51
2023/03/18 12:16:25;;;;;;;22.88;4.70;;;;;;;29.79;24.90;100147.41;5105873;28;20110;-51
2023/03/18 12:19:15;;;;;;;14.18;4.30;;;;;;;29.99;24.99;100162.44;5104501;28;20027;-49
2023/03/18 12:21:47;;;;;;;12.25;4.35;;;;;;;30.07;24.86;100153.31;5103528;28;20402;-50
2023/03/18 12:24:25;;;;;;;12.43;4.60;;;;;;;30.09;23.76;100141.91;5104149;28;20097;-49
2023/03/18 12:27:18;;;;;;;11.45;4.65;;;;;;;30.26;23.83;100155.66;5105383;27;20352;-51
2023/03/18 12:29:48;;;;;;;17.63;4.20;;;;;;;30.20;23.47;100153.41;5101936;28;20082;-51
2023/03/18 12:32:26;;;;;;;13.45;4.63;;;;;;;30.10;24.36;100165.66;5102514;28;20082;-51
2023/03/18 12:35:33;;;;;;;14.00;4.22;;;;;;;30.26;23.53;100163.97;5105426;28;20032;-50
2023/03/18 12:38:26;;;;;;;11.95;3.30;;;;;;;30.21;23.38;100163.34;5095523;28;20043;-48
2023/03/18 12:41:49;;;;;;;13.95;4.03;;;;;;;30.22;23.54;100160.25;5104025;28;20036;-49
2023/03/18 12:44:28;;;;;;;10.15;3.70;;;;;;;30.26;23.32;100163.16;5084081;28;20634;-49
2023/03/18 12:47:05;;;;;;;10.60;3.50;;;;;;;30.30;22.80;100162.16;5082067;28;20104;-47
2023/03/18 12:49:36;;;;;;;11.27;3.05;;;;;;;30.22;22.99;100157.47;5097103;28;20063;-52
2023/03/18 12:52:19;;;;;;;10.68;2.97;;;;;;;30.37;22.46;100163.59;5103563;28;20123;-51
2023/03/18 12:54:58;;;;;;;8.60;2.45;;;;;;;30.45;22.71;100162.75;5102719;28;20553;-51
2023/03/18 12:57:41;;;;;;;8.55;2.78;;;;;;;30.33;22.24;100166.25;5102860;28;20027;-53
2023/03/18 13:00:33;;;;;;;7.03;2.58;;;;;;;30.32;22.61;100170.13;5105186;28;20058;-51
2023/03/18 13:03:05;;;;;;;6.82;2.80;;;;;;;30.38;22.17;100168.00;5100101;28;20079;-49
2023/03/18 13:05:40;;;;;;;8.25;2.42;;;;;;;30.43;21.83;100174.16;5089053;28;20035;-51
2023/03/18 13:08:13;;;;;;;7.40;3.03;;;;;;;30.52;21.92;100165.81;5091053;28;20370;-51
2023/03/18 13:10:42;;;;;;;7.13;2.72;;;;;;;30.64;21.75;100173.38;5084796;28;20051;-53
2023/03/18 13:13:10;;;;;;;5.80;2.50;;;;;;;30.71;22.03;100175.63;5083523;28;20499;-48
2023/03/18 13:15:50;;;;;;;9.15;2.28;;;;;;;30.55;21.81;100167.88;5083155;28;20073;-47
2023/03/18 13:18:41;;;;;;;5.05;2.10;;;;;;;30.90;21.37;100184.28;5085852;28;20114;-50
2023/03/18 13:21:11;;;;;;;6.57;1.92;;;;;;;31.10;21.50;100177.16;5085367;28;20032;-47
2023/03/18 13:24:02;;;;;;;8.07;2.22;;;;;;;31.26;21.09;100182.91;5086951;28;20028;-50
2023/03/18 13:26:44;;;;;;;4.13;2.00;;;;;;;31.28;20.43;100183.38;5088300;28;20048;-49
2023/03/18 13:29:33;;;;;;;8.63;2.20;;;;;;;31.49;20.59;100177.78;5089725;28;20024;-48
2023/03/18 13:32:33;;;;;;;6.43;2.15;;;;;;;31.84;19.86;100177.41;5090395;28;20036;-50
2023/03/18 13:35:36;;;;;;;3.15;1.85;;;;;;;31.65;20.20;100186.28;5086536;28;20054;-48
2023/03/18 13:38:19;;;;;;;5.53;2.13;;;;;;;31.73;19.68;100181.78;5092330;28;20024;-48
2023/03/18 13:41:31;;;;;;;6.53;2.17;;;;;;;31.84;19.60;100177.41;5088768;28;20415;-47
2023/03/18 13:44:00;;;;;;;5.10;1.80;;;;;;;32.08;19.40;100164.75;5089201;28;20051;-49
2023/03/18 13:46:29;;;;;;;7.78;2.20;;;;;;;32.22;18.97;100182.72;5086973;28;20060;-51
2023/03/18 13:48:57;;;;;;;6.25;2.15;;;;;;;31.77;19.79;100193.84;5091560;28;20028;-49
2023/03/18 13:51:23;;;;;;;6.22;1.95;;;;;;;31.82;19.13;100191.66;5089259;28;20496;-50
2023/03/18 13:53:50;;;;;;;5.40;1.95;;;;;;;31.84;19.70;100200.44;5088947;28;20097;-51
2023/03/18 13:56:43;;;;;;;4.40;1.63;;;;;;;31.87;19.45;100190.59;5089987;28;20024;-53
2023/03/18 13:59:32;;;;;;;3.65;1.98;;;;;;;31.78;19.37;100196.28;5089777;28;20051;-50
2023/03/18 14:02:36;;;;;;;3.75;1.70;;;;;;;31.68;19.37;100196.69;5088825;28;20040;-49
2023/03/18 14:05:02;;;;;;;7.32;1.95;;;;;;;32.17;19.35;100196.81;5085526;28;20028;-49
2023/03/18 14:07:28;;;;;;;3.70;1.88;;;;;;;33.37;17.78;100202.09;5087677;28;20078;-47
2023/03/18 14:09:59;;;;;;;3.80;1.90;;;;;;;33.16;18.40;100203.09;5091401;28;20646;-47
2023/03/18 14:12:31;;;;;;;3.78;1.58;;;;;;;33.32;18.82;100196.75;5089771;28;20043;-47
2023/03/18 14:15:06;;;;;;;5.63;1.52;;;;;;;33.62;18.22;100208.38;5092066;28;20471;-48
2023/03/18 14:17:46;;;;;;;6.45;1.63;;;;;;;33.92;18.50;100207.97;5088982;28;20032;-46
2023/03/18 14:20:18;;;;;;;7.13;1.75;;;;;;;34.28;19.11;100206.91;5088021;28;20043;-49
2023/03/18 14:22:55;;;;;;;5.55;1.45;;;;;;;34.38;18.65;100204.75;5088320;28;20102;-49
2023/03/18 14:25:29;;;;;;;6.00;1.63;;;;;;;33.77;19.62;100211.53;5090853;28;20078;-47
2023/03/18 14:28:15;;;;;;;2.70;1.42;;;;;;;34.26;21.59;100222.38;5087299;28;20032;-52
2023/03/18 14:30:44;;;;;;;14.23;1.77;;;;;;;33.95;23.94;100212.81;5086042;28;20032;-51
2023/03/18 14:33:19;;;;;;;12.70;1.42;;;;;;;33.54;24.03;100221.28;5088080;28;20027;-50
2023/03/18 14:35:55;;;;;;;5.20;1.23;;;;;;;33.48;23.23;100224.66;5087113;28;20425;-50
2023/03/18 14:38:25;;;;;;;0.50;0.50;;;;;;;23.15;23.90;100235.34;5090834;28;20055;-48
2023/03/18 14:40:54;;;;;;;1.40;1.10;;;;;;;20.36;27.92;100245.69;5087531;28;20716;-48
2023/03/18 14:43:33;;;;;;;2.17;1.60;;;;;;;19.65;27.97;100246.78;5089125;28;20060;-52
2023/03/18 14:46:03;;;;;;;1.73;1.38;;;;;;;19.43;28.52;100255.03;5089030;28;20032;-50
2023/03/18 14:48:32;;;;;;;1.45;1.30;;;;;;;18.76;28.95;100257.00;5087268;28;20543;-50
2023/03/18 14:51:16;;;;;;;1.30;1.17;;;;;;;18.83;29.55;100261.44;5088093;28;20036;-48
2023/03/18 14:54:03;;;;;;;0.90;0.80;;;;;;;18.62;29.59;100253.00;5081994;28;20048;-53
2023/03/18 14:56:38;;;;;;;0.63;0.63;;;;;;;17.75;30.72;100260.66;5089604;28;20064;-47
2023/03/18 14:59:04;;;;;;;0.90;0.80;;;;;;;18.24;29.95;100262.81;5089661;28;20024;-49
2023/03/18 15:01:36;;;;;;;1.17;0.80;;;;;;;15.87;32.59;100257.34;5086457;28;20031;-48
2023/03/18 15:04:04;;;;;;;1.23;0.98;;;;;;;16.37;33.24;100264.19;5089151;28;20024;-48
2023/03/18 15:06:29;;;;;;;1.20;1.10;;;;;;;16.30;32.89;100241.81;5082935;28;20048;-50
2023/03/18 15:09:07;;;;;;;1.38;1.23;;;;;;;15.83;34.65;100266.19;5088995;28;20020;-50
2023/03/18 15:11:38;;;;;;;1.40;1.15;;;;;;;15.56;34.02;100263.03;5086936;28;20036;-52
2023/03/18 15:14:17;;;;;;;1.38;1.27;;;;;;;15.54;33.93;100254.31;5088780;28;20028;-50
2023/03/18 15:16:52;;;;;;;1.73;1.00;;;;;;;15.83;33.60;100217.44;5086481;28;20028;-51
2023/03/18 15:19:18;;;;;;;1.52;1.02;;;;;;;18.68;30.83;100267.47;5086877;28;20039;-49
2023/03/18 15:21:44;;;;;;;2.38;1.02;;;;;;;17.93;31.17;100270.50;5087596;28;20037;-50
2023/03/18 15:24:15;;;;;;;1.23;0.90;;;;;;;18.31;31.37;100263.47;5088158;28;20039;-49
2023/03/18 15:26:41;;;;;;;1.23;1.00;;;;;;;18.22;30.70;100256.81;5088543;28;20031;-52
2023/03/18 15:29:28;;;;;;;1.58;1.40;;;;;;;18.42;31.06;100267.13;5089443;28;20156;-50
2023/03/18 15:32:06;;;;;;;3.65;1.20;;;;;;;18.55;29.96;100269.50;5086900;28;20060;-49
2023/03/18 15:34:33;;;;;;;1.70;1.00;;;;;;;17.83;29.98;100272.19;5091096;28;20418;-50
2023/03/18 15:37:02;;;;;;;1.92;0.80;;;;;;;18.39;31.88;100270.38;5085283;28;20032;-51
2023/03/18 15:39:38;;;;;;;8.82;1.00;;;;;;;18.21;29.62;100257.88;5091168;28;20109;-50
2023/03/18 15:42:17;;;;;;;1.75;0.77;;;;;;;17.39;29.61;100264.66;5087189;28;20058;-48
2023/03/18 15:44:44;;;;;;;9.15;0.60;;;;;;;19.82;27.50;100273.13;5087967;28;20036;-50
2023/03/18 15:47:18;;;;;;;1.38;0.60;;;;;;;23.30;23.75;100264.59;5091283;28;20028;-54
2023/03/18 15:50:24;;;;;;;8.65;0.95;;;;;;;24.37;22.48;100196.22;5087898;28;20052;-50
2023/03/18 15:52:59;;;;;;;8.60;0.70;;;;;;;25.65;22.91;100267.88;5088904;28;20126;-50
2023/03/18 15:55:45;;;;;;;9.23;0.80;;;;;;;26.12;24.42;100267.94;5087856;28;20028;-46
2023/03/18 15:58:19;;;;;;;7.32;0.73;;;;;;;26.59;24.57;100260.41;5089819;28;20020;-48
2023/03/18 16:00:45;;;;;;;;;;;;;;;26.94;23.48;100266.34;5089118;28;20043;-47
2023/03/18 16:03:17;;;;;;;7.88;0.75;;;;;;;27.08;22.78;100260.78;5087736;28;19908;-50
2023/03/18 16:05:43;;;;;;;10.23;0.80;;;;;;;27.26;22.47;100270.88;5089317;28;20039;-49
2023/03/18 16:08:10;;;;;;;11.23;0.80;;;;;;;27.33;23.85;100276.78;5084559;28;20028;-50
2023/03/18 16:10:35;;;;;;;3.88;0.70;;;;;;;27.50;23.20;100275.31;5090699;28;20024;-47
2023/03/18 16:13:03;;;;;;;4.55;0.50;;;;;;;27.51;22.97;100283.28;5084589;28;20514;-48
2023/03/18 16:15:28;;;;;;;2.10;0.60;;;;;;;27.52;23.60;100286.84;5088535;28;20787;-52
2023/03/18 16:17:55;;;;;;;6.95;0.70;;;;;;;27.63;24.04;100288.25;5088244;28;20035;-48
2023/03/18 16:20:27;;;;;;;1.63;0.57;;;;;;;27.72;24.71;100285.56;5088462;28;20054;-48
2023/03/18 16:22:53;;;;;;;5.15;0.55;;;;;;;27.64;24.78;100287.13;5088833;28;20349;-47
2023/03/18 16:25:19;;;;;;;2.50;0.60;;;;;;;27.78;24.86;100292.56;5085364;28;20036;-47
2023/03/18 16:27:48;;;;;;;8.77;0.70;;;;;;;27.89;25.53;100296.72;5089238;28;20036;-46
2023/03/18 16:30:23;;;;;;;3.63;0.57;;;;;;;27.84;24.84;100282.22;5089054;28;20028;-48
2023/03/18 16:32:49;;;;;;;3.60;0.70;;;;;;;27.96;24.76;100293.53;5075969;28;20036;-50
2023/03/18 16:35:18;;;;;;;8.40;1.10;;;;;;;28.04;24.75;100292.78;5089048;28;20059;-53
2023/03/18 16:37:45;;;;;;;1.77;0.50;;;;;;;28.01;25.35;100307.22;5087956;28;20039;-49
2023/03/18 16:40:23;;;;;;;7.22;0.80;;;;;;;27.87;25.04;100303.69;5089137;28;20031;-43
2023/03/18 16:42:49;;;;;;;6.35;0.60;;;;;;;28.13;25.92;100312.16;5093059;28;20028;-46
2023/03/18 16:45:25;;;;;;;4.50;0.60;;;;;;;28.11;25.87;100309.72;5089384;28;20039;-48
2023/03/18 16:47:56;;;;;;;3.80;0.80;;;;;;;28.18;26.20;100318.38;5093635;28;20024;-46
2023/03/18 16:50:27;;;;;;;7.40;0.70;;;;;;;28.12;26.43;100303.06;5094561;28;20031;-47
2023/03/18 16:52:53;;;;;;;1.98;0.73;;;;;;;28.23;26.08;100327.63;5091902;28;20044;-45
2023/03/18 16:55:19;;;;;;;4.28;0.60;;;;;;;28.29;26.70;100329.97;5089577;28;20032;-51
2023/03/18 16:57:51;;;;;;;4.30;0.70;;;;;;;28.27;26.85;100331.41;5092902;28;20028;-51
2023/03/18 17:00:30;;;;;;;1.75;1.20;;;;;;;24.76;25.40;100324.28;5094089;28;20024;-49
2023/03/18 17:02:57;;;;;;;2.13;0.90;;;;;;;26.65;25.61;100330.84;5091503;28;20461;-49
2023/03/18 17:05:23;;;;;;;6.63;1.30;;;;;;;27.55;27.83;100338.66;5092765;28;20043;-47
2023/03/18 17:07:49;;;;;;;1.13;0.75;;;;;;;27.91;27.04;100337.84;5093832;28;20094;-46
2023/03/18 17:10:21;;;;;;;2.85;0.75;;;;;;;28.01;27.04;100345.88;5091581;28;20115;-50
2023/03/18 17:13:12;;;;;;;3.92;0.70;;;;;;;28.09;28.02;100342.34;5091642;28;20028;-48
2023/03/18 17:15:37;;;;;;;2.08;0.70;;;;;;;28.14;27.02;100336.69;5088148;28;20031;-47
2023/03/18 17:18:04;;;;;;;4.55;1.00;;;;;;;28.26;26.94;100341.63;5091328;28;20467;-48
2023/03/18 17:20:33;;;;;;;2.03;0.60;;;;;;;28.24;27.07;100341.13;5092129;28;20062;-49
2023/03/18 17:22:59;;;;;;;1.27;0.60;;;;;;;28.32;27.13;100356.94;5088082;28;20419;-49
2023/03/18 17:25:26;;;;;;;1.13;0.70;;;;;;;28.17;27.45;100346.28;5093273;28;20043;-51
2023/03/18 17:28:25;;;;;;;3.22;0.80;;;;;;;28.39;27.28;100365.59;5091278;28;20107;-48
2023/03/18 17:30:51;;;;;;;1.73;0.70;;;;;;;28.31;27.13;100365.56;5093421;28;20028;-49
2023/03/18 17:33:23;;;;;;;0.88;0.60;;;;;;;28.33;26.85;100366.88;5092935;28;20357;-50
2023/03/18 17:35:49;;;;;;;3.03;0.63;;;;;;;28.32;27.64;100375.47;5090902;28;20396;-48
2023/03/18 17:38:15;;;;;;;2.28;0.90;;;;;;;28.39;27.55;100371.13;5090012;28;20036;-48
2023/03/18 17:40:41;;;;;;;3.20;0.85;;;;;;;28.47;27.15;100380.63;5091261;28;20031;-46
2023/03/18 17:43:15;;;;;;;2.78;0.88;;;;;;;28.47;26.89;100397.19;5090731;28;20054;-49
2023/03/18 17:45:40;;;;;;;4.15;0.80;;;;;;;28.34;27.14;100376.78;5090806;28;20516;-52
2023/03/18 17:48:09;;;;;;;0.77;0.77;;;;;;;28.46;27.34;100397.50;5090865;28;20115;-51
2023/03/18 17:50:34;;;;;;;2.22;0.90;;;;;;;28.51;27.15;100394.59;5092677;28;20032;-52
2023/03/18 17:53:00;;;;;;;1.58;0.90;;;;;;;28.43;27.34;100385.13;5091294;28;20044;-47
2023/03/18 17:55:26;;;;;;;0.98;0.80;;;;;;;28.46;27.65;100400.25;5088530;28;20032;-49
2023/03/18 17:57:51;;;;;;;0.70;0.70;;;;;;;28.48;27.38;100409.03;5089880;28;20065;-48
2023/03/18 18:00:26;;;;;;;2.15;0.90;;;;;;;28.53;27.92;100411.72;5089474;28;20938;-49
2023/03/18 18:02:56;;;;;;;0.85;0.60;;;;;;;28.53;27.85;100417.25;5089957;28;20066;-48
2023/03/18 18:05:22;;;;;;;1.58;0.88;;;;;;;28.43;27.85;100407.22;5089455;28;20084;-47
2023/03/18 18:07:48;;;;;;;4.35;0.93;;;;;;;28.54;27.63;100411.38;5090177;28;20035;-46
2023/03/18 18:10:16;;;;;;;1.75;0.73;;;;;;;28.55;27.54;100424.06;5090002;28;20028;-49
2023/03/18 18:12:47;;;;;;;1.25;0.95;;;;;;;28.49;27.90;100424.47;5089614;28;20032;-48
2023/03/18 18:15:25;;;;;;;0.85;0.85;;;;;;;28.54;27.56;100424.38;5091647;28;20047;-49
2023/03/18 18:17:52;;;;;;;0.80;0.80;;;;;;;28.50;27.43;100421.41;5088625;28;20589;-48
2023/03/18 18:20:20;;;;;;;3.30;0.85;;;;;;;28.48;27.84;100420.09;5089558;28;20043;-52
2023/03/18 18:22:55;;;;;;;0.75;0.70;;;;;;;28.53;27.56;100429.09;5089652;28;20085;-46
2023/03/18 18:25:24;;;;;;;0.90;0.70;;;;;;;28.55;27.55;100439.84;5086970;28;20032;-47
2023/03/18 18:27:50;;;;;;;2.17;0.70;;;;;;;28.62;27.33;100445.75;5087335;28;20141;-46
2023/03/18 18:30:18;;;;;;;4.05;0.68;;;;;;;28.56;27.17;100444.22;5087024;28;20024;-48
2023/03/18 18:32:44;;;;;;;1.10;0.73;;;;;;;28.62;27.22;100448.50;5089750;28;20020;-47
2023/03/18 18:35:15;;;;;;;3.65;0.93;;;;;;;28.61;27.14;100454.34;5090033;28;20149;-46
2023/03/18 18:37:41;;;;;;;1.00;0.75;;;;;;;28.57;27.16;100460.50;5090059;28;20052;-48
2023/03/18 18:40:09;;;;;;;0.65;0.60;;;;;;;28.63;27.06;100466.69;5091201;28;20060;-50
2023/03/18 18:42:35;;;;;;;0.70;0.60;;;;;;;28.63;27.00;100466.69;5088572;28;20020;-51
2023/03/18 18:45:00;;;;;;;0.75;0.68;;;;;;;28.56;27.10;100474.63;5088854;28;20373;-50
2023/03/18 18:47:26;;;;;;;0.70;0.55;;;;;;;28.29;27.29;100436.88;5088358;28;20036;-52
2023/03/18 18:49:51;;;;;;;0.63;0.63;;;;;;;28.57;26.96;100481.78;5088126;28;20035;-48
2023/03/18 18:52:17;;;;;;;1.58;0.60;;;;;;;28.60;27.65;100480.34;5089961;28;20032;-48
2023/03/18 18:54:43;;;;;;;0.55;0.47;;;;;;;28.62;26.90;100487.19;5087972;28;20088;-50
2023/03/18 18:57:27;;;;;;;0.70;0.60;;;;;;;28.47;27.17;100468.19;5089511;28;20384;-48
2023/03/18 18:59:52;;;;;;;1.15;0.60;;;;;;;28.57;26.85;100479.03;5086596;28;20038;-51
2023/03/18 19:02:29;;;;;;;0.50;0.50;;;;;;;28.69;26.69;100490.31;5087544;28;20415;-51
2023/03/18 19:04:55;;;;;;;2.85;0.70;;;;;;;28.68;27.10;100482.34;5090905;28;20086;-45
2023/03/18 19:07:22;;;;;;;1.20;0.60;;;;;;;28.68;26.45;100485.13;5089077;28;20040;-48
2023/03/18 19:09:48;;;;;;;3.85;0.98;;;;;;;28.66;26.83;100485.44;5088590;28;20081;-48
2023/03/18 19:12:15;;;;;;;0.50;0.50;;;;;;;28.73;26.44;100498.78;5088227;28;20119;-49
2023/03/18 19:14:40;;;;;;;0.68;0.60;;;;;;;28.48;26.37;100469.84;5088801;28;20512;-47
2023/03/18 19:17:14;;;;;;;1.25;0.70;;;;;;;28.70;26.29;100478.13;5089468;28;20043;-47
2023/03/18 19:19:41;;;;;;;0.40;0.40;;;;;;;28.68;26.44;100488.69;5087600;28;20028;-50
2023/03/18 19:22:15;;;;;;;1.20;0.60;;;;;;;28.68;26.55;100498.94;5089014;28;20291;-53
2023/03/18 19:24:42;;;;;;;;;;;;;;;28.69;26.40;100498.59;5089853;28;20548;-50
2023/03/18 19:27:29;;;;;;;0.93;0.60;;;;;;;28.76;26.23;100496.22;5089648;28;19926;-49
2023/03/18 19:30:03;;;;;;;1.70;0.60;;;;;;;28.93;26.17;100498.25;5087483;28;20032;-48
2023/03/18 19:32:29;;;;;;;;;;;;;;;28.81;26.16;100505.50;5089493;28;20044;-49
2023/03/18 19:34:54;;;;;;;0.50;0.50;;;;;;;28.74;25.86;100512.28;5090589;28;19922;-51
2023/03/18 19:37:31;;;;;;;0.60;0.60;;;;;;;28.76;26.10;100510.03;5088803;28;20102;-53
2023/03/18 19:39:59;;;;;;;0.60;0.60;;;;;;;28.87;25.82;100510.59;5088773;28;20031;-53
2023/03/18 19:42:24;;;;;;;0.50;0.50;;;;;;;28.80;26.07;100507.44;5089937;28;20033;-52
2023/03/18 19:44:50;;;;;;;0.70;0.60;;;;;;;28.56;25.84;100478.19;5090242;28;20039;-50
2023/03/18 19:47:19;;;;;;;1.85;0.60;;;;;;;28.81;25.93;100520.16;5090829;28;20036;-48
2023/03/18 19:49:45;;;;;;;1.10;0.70;;;;;;;28.76;25.89;100515.56;5088858;28;20028;-47
2023/03/18 19:52:19;;;;;;;0.68;0.68;;;;;;;28.77;25.84;100510.88;5085861;28;20557;-50
2023/03/18 19:54:45;;;;;;;0.85;0.60;;;;;;;28.77;26.06;100525.50;5089760;28;20024;-47
2023/03/18 19:57:15;;;;;;;1.38;0.50;;;;;;;28.64;25.85;100517.25;5089907;28;20052;-47
2023/03/18 19:59:41;;;;;;;0.70;0.70;;;;;;;28.51;25.74;100488.53;5090716;28;20078;-48
2023/03/18 20:02:20;;;;;;;0.93;0.65;;;;;;;28.70;25.67;100521.53;5087030;28;20495;-49
2023/03/18 20:04:48;;;;;;;0.60;0.60;;;;;;;28.83;25.46;100528.13;5089230;28;20391;-53
2023/03/18 20:07:18;;;;;;;0.60;0.50;;;;;;;28.74;25.73;100531.66;5089396;28;20028;-49
2023/03/18 20:09:48;;;;;;;1.60;0.55;;;;;;;28.71;25.54;100528.69;5082320;28;20484;-47
2023/03/18 20:12:32;;;;;;;0.60;0.40;;;;;;;28.43;25.87;100527.97;5090188;28;20035;-50
2023/03/18 20:14:58;;;;;;;1.30;0.70;;;;;;;28.21;26.17;100532.31;5089928;28;20051;-49
2023/03/18 20:17:40;;;;;;;4.13;0.63;;;;;;;28.27;26.17;100539.38;5090185;28;20036;-51
2023/03/18 20:20:22;;;;;;;0.85;0.80;;;;;;;28.41;25.98;100544.84;5089958;28;20032;-47
2023/03/18 20:23:21;;;;;;;0.60;0.52;;;;;;;28.21;26.25;100545.31;5090414;28;20122;-48
2023/03/18 20:25:50;;;;;;;8.88;0.70;;;;;;;28.30;25.82;100540.69;5088012;28;20079;-48
2023/03/18 20:28:19;;;;;;;1.00;0.60;;;;;;;28.28;26.04;100543.75;5092280;28;20376;-47
2023/03/18 20:30:46;;;;;;;2.08;0.50;;;;;;;28.29;25.79;100553.69;5092262;28;20085;-48
2023/03/18 20:33:14;;;;;;;2.50;0.50;;;;;;;28.07;25.95;100559.16;5090918;28;20511;-46
2023/03/18 20:35:42;;;;;;;0.80;0.60;;;;;;;28.43;25.45;100561.13;5091732;28;20028;-50
2023/03/18 20:38:32;;;;;;;3.13;0.60;;;;;;;28.47;25.37;100557.44;5093676;28;20039;-53
2023/03/18 20:40:58;;;;;;;0.93;0.60;;;;;;;28.17;25.31;100521.06;5092037;28;20105;-56
2023/03/18 20:43:26;;;;;;;0.73;0.57;;;;;;;28.51;25.77;100568.66;5093437;28;20020;-50
2023/03/18 20:45:53;;;;;;;0.70;0.60;;;;;;;28.56;25.62;100574.91;5092134;28;20528;-53
2023/03/18 20:48:18;;;;;;;5.10;1.38;;;;;;;28.50;25.98;100578.91;5092327;28;20040;-53
2023/03/18 20:50:45;;;;;;;6.18;2.30;;;;;;;28.47;26.24;100584.22;5091260;28;20051;-54
2023/03/18 20:53:16;;;;;;;5.15;2.95;;;;;;;28.23;26.45;100563.22;5089243;28;20108;-53
2023/03/18 20:55:41;;;;;;;7.07;2.13;;;;;;;28.31;25.76;100583.78;5093105;28;20020;-48
2023/03/18 20:58:15;;;;;;;4.32;1.73;;;;;;;28.08;25.91;100578.19;5093066;28;20096;-50
2023/03/18 21:00:41;;;;;;;3.70;1.85;;;;;;;28.04;25.92;100585.44;5091517;28;20061;-48
2023/03/18 21:03:29;;;;;;;8.32;1.95;;;;;;;28.06;25.49;100582.38;5091851;28;20032;-49
2023/03/18 21:05:56;;;;;;;3.42;1.42;;;;;;;27.84;26.07;100588.59;5091318;28;20065;-51
2023/03/18 21:08:23;;;;;;;2.25;1.35;;;;;;;27.92;25.51;100590.66;5093877;28;20020;-51
2023/03/18 21:10:50;;;;;;;2.45;1.50;;;;;;;27.84;25.67;100594.09;5091810;28;20360;-49
2023/03/18 21:13:19;;;;;;;2.35;1.35;;;;;;;27.85;25.43;100595.75;5093449;28;20043;-55
2023/03/18 21:15:44;;;;;;;3.08;1.60;;;;;;;27.78;25.46;100590.63;5091150;28;20032;-47
2023/03/18 21:18:13;;;;;;;3.47;1.50;;;;;;;27.87;25.81;100574.97;5090905;28;20089;-59
2023/03/18 21:20:39;;;;;;;2.85;1.40;;;;;;;28.03;25.98;100599.53;5091032;28;20119;-49
2023/03/18 21:23:11;;;;;;;3.38;1.20;;;;;;;27.97;26.95;100588.63;5087787;28;20028;-49
2023/03/18 21:25:36;;;;;;;1.20;1.00;;;;;;;27.99;26.85;100599.38;5091631;28;20036;-49
2023/03/18 21:28:02;;;;;;;2.20;1.30;;;;;;;27.94;27.68;100589.22;5087128;28;20043;-53
2023/03/18 21:30:27;;;;;;;5.10;1.20;;;;;;;27.98;27.92;100600.47;5091061;28;20406;-54
2023/03/18 21:32:53;;;;;;;10.93;1.20;;;;;;;28.14;28.92;100607.31;5089432;28;20541;-54
2023/03/18 21:35:24;;;;;;;1.30;1.00;;;;;;;28.15;28.63;100600.66;5090705;28;20028;-50
2023/03/18 21:37:50;;;;;;;2.72;1.20;;;;;;;28.11;28.64;100598.84;5092614;28;20043;-50
2023/03/18 21:40:19;;;;;;;3.28;1.10;;;;;;;28.14;28.75;100601.78;5091927;28;20031;-51
2023/03/18 21:43:26;;;;;;;1.65;0.90;;;;;;;28.16;28.70;100598.72;5089236;28;20081;-52
2023/03/18 21:45:53;;;;;;;2.53;0.80;;;;;;;28.23;28.38;100601.06;5089835;28;20084;-52
2023/03/18 21:48:20;;;;;;;0.80;0.68;;;;;;;28.17;28.29;100600.34;5090392;28;20479;-48
2023/03/18 21:50:46;;;;;;;2.38;0.80;;;;;;;28.20;28.24;100605.25;5091401;28;20105;-49
2023/03/18 21:53:16;;;;;;;1.10;0.82;;;;;;;28.19;28.07;100593.41;5089366;28;20403;-47
2023/03/18 21:55:42;;;;;;;1.00;0.90;;;;;;;28.24;28.24;100600.75;5091727;28;20035;-48
2023/03/18 21:58:15;;;;;;;2.38;0.80;;;;;;;28.27;28.14;100608.44;5090366;28;20028;-47
2023/03/18 22:00:41;;;;;;;1.05;0.77;;;;;;;28.28;27.70;100609.25;5073241;28;20035;-51
2023/03/18 22:03:17;;;;;;;2.65;0.75;;;;;;;28.32;27.52;100605.53;5090177;28;20023;-49
2023/03/18 22:05:48;;;;;;;0.82;0.73;;;;;;;28.35;27.65;100595.81;5089971;28;20032;-51
2023/03/18 22:08:14;;;;;;;0.70;0.63;;;;;;;28.37;27.60;100613.72;5088515;28;20567;-50
2023/03/18 22:10:40;;;;;;;0.80;0.60;;;;;;;28.15;27.47;100584.09;5089066;28;20031;-53
2023/03/18 22:13:25;;;;;;;0.80;0.60;;;;;;;28.46;27.50;100608.28;5089653;28;20111;-55
2023/03/18 22:15:52;;;;;;;1.00;0.60;;;;;;;28.44;27.39;100612.50;5091158;28;20101;-54
2023/03/18 22:18:18;;;;;;;0.80;0.80;;;;;;;28.43;27.32;100608.09;5090098;28;20035;-53
2023/03/18 22:20:45;;;;;;;1.98;0.70;;;;;;;28.49;26.81;100617.88;5090238;28;20070;-49
2023/03/18 22:23:15;;;;;;;1.50;0.73;;;;;;;28.56;26.71;100624.66;5089316;28;20031;-49
2023/03/18 22:25:41;;;;;;;0.80;0.70;;;;;;;28.53;26.91;100617.00;5089135;28;20032;-51
2023/03/18 22:28:07;;;;;;;0.55;0.50;;;;;;;28.34;26.99;100608.81;5090952;28;20034;-50
2023/03/18 22:30:33;;;;;;;0.60;0.60;;;;;;;28.43;26.85;100625.47;5088744;28;20031;-53
2023/03/18 22:33:00;;;;;;;1.88;0.52;;;;;;;28.48;26.61;100619.84;5091156;28;20032;-49
2023/03/18 22:35:27;;;;;;;0.70;0.70;;;;;;;28.59;26.70;100627.94;5089177;28;20036;-56
2023/03/18 22:37:53;;;;;;;1.40;0.80;;;;;;;28.60;26.49;100626.78;5088580;28;20046;-55
2023/03/18 22:40:40;;;;;;;0.52;0.52;;;;;;;28.70;26.52;100623.81;5088514;28;20036;-53
2023/03/18 22:43:17;;;;;;;2.15;0.77;;;;;;;28.51;26.40;100627.50;5088809;28;20372;-47
2023/03/18 22:45:42;;;;;;;0.80;0.60;;;;;;;28.54;26.75;100620.56;5090925;28;20138;-55
2023/03/18 22:48:15;;;;;;;0.50;0.50;;;;;;;28.51;26.12;100612.84;5087465;28;20040;-50
2023/03/18 22:50:52;;;;;;;0.50;0.50;;;;;;;28.57;25.94;100608.91;5088054;28;20510;-53
2023/03/18 22:53:24;;;;;;;0.50;0.50;;;;;;;28.51;26.36;100621.16;5088753;28;20519;-52
2023/03/18 22:55:52;;;;;;;2.45;0.50;;;;;;;28.33;26.18;100576.78;5091424;28;20418;-51
2023/03/18 22:58:24;;;;;;;0.80;0.55;;;;;;;28.62;25.83;100614.31;5088305;28;20028;-50
2023/03/18 23:00:50;;;;;;;1.52;0.65;;;;;;;28.60;25.87;100616.56;5088985;28;20028;-50
2023/03/18 23:03:28;;;;;;;0.60;0.60;;;;;;;28.69;25.55;100617.44;5091218;28;20070;-55
2023/03/18 23:05:55;;;;;;;0.85;0.50;;;;;;;28.56;25.62;100618.31;5089265;28;20020;-52
2023/03/18 23:08:22;;;;;;;0.47;0.43;;;;;;;28.55;25.69;100619.44;5089471;28;20039;-57
2023/03/18 23:10:49;;;;;;;0.70;0.60;;;;;;;28.56;25.16;100621.06;5085337;28;20574;-53
2023/03/18 23:13:26;;;;;;;0.70;0.57;;;;;;;28.49;25.11;100624.25;5088043;28;20039;-54
2023/03/18 23:15:52;;;;;;;0.88;0.50;;;;;;;28.47;25.25;100631.19;5091417;28;20027;-56
2023/03/18 23:18:19;;;;;;;0.43;0.40;;;;;;;28.39;25.32;100627.22;5089882;28;20036;-55
2023/03/18 23:20:47;;;;;;;1.00;0.40;;;;;;;28.43;25.18;100621.91;5091849;28;20036;-61
2023/03/18 23:23:13;;;;;;;2.00;0.40;;;;;;;28.28;25.19;100606.47;5091113;28;20048;-54
2023/03/18 23:25:41;;;;;;;0.90;0.40;;;;;;;28.47;24.75;100631.19;5089068;28;20111;-52
2023/03/18 23:28:07;;;;;;;0.50;0.50;;;;;;;28.42;24.76;100629.38;5088084;28;20342;-52
2023/03/18 23:30:35;;;;;;;0.70;0.52;;;;;;;28.13;25.22;100610.38;5088628;28;20043;-48
2023/03/18 23:33:00;;;;;;;0.80;0.40;;;;;;;28.29;25.12;100638.50;5089528;28;20423;-54
2023/03/18 23:35:26;;;;;;;1.30;0.40;;;;;;;28.22;25.22;100636.16;5088229;28;20031;-53
2023/03/18 23:37:52;;;;;;;0.40;0.40;;;;;;;28.35;25.13;100645.56;5086946;28;20020;-55
2023/03/18 23:40:17;;;;;;;0.30;0.28;;;;;;;28.25;25.12;100635.53;5089504;28;20088;-55
2023/03/18 23:42:43;;;;;;;0.55;0.55;;;;;;;28.26;24.70;100634.41;5088232;28;20035;-54